createdAt,value
2023-04-29T00:48:08.157Z,90.90
2023-04-29T00:50:36.820Z,91.00
2023-04-29T01:02:54.518Z,90.90
2023-04-29T01:24:36.397Z,91.10
2023-04-29T01:45:57.907Z,91.30
2023-04-29T01:48:25.978Z,91.30
2023-04-29T01:50:53.667Z,91.40
2023-04-29T01:53:21.247Z,91.50
2023-04-29T01:55:49.009Z,91.50
2023-04-29T02:07:14.954Z,91.70
2023-04-29T02:09:42.571Z,91.80
2023-04-29T02:20:47.715Z,92.10
2023-04-29T02:23:15.816Z,92.30
2023-04-29T02:25:43.132Z,92.20
2023-04-29T02:29:25.711Z,92.70
2023-04-29T02:31:53.367Z,92.50
2023-04-29T02:34:20.793Z,92.70
2023-04-29T02:36:48.102Z,93.10
2023-04-29T02:44:02.752Z,92.70
2023-04-29T02:46:30.179Z,92.60
2023-04-29T02:48:58.137Z,93.00
2023-04-29T03:14:48.289Z,92.50
2023-04-29T03:17:15.772Z,92.30
2023-04-29T03:19:44.189Z,92.00
2023-04-29T03:36:55.586Z,91.20
2023-04-29T03:39:23.824Z,91.30
2023-04-29T03:51:34.014Z,91.60
2023-04-29T03:54:25.410Z,91.70
2023-04-29T03:56:52.728Z,91.70
2023-04-29T04:06:18.244Z,91.50
2023-04-29T04:08:46.392Z,91.40
2023-04-29T04:11:17.706Z,91.30
2023-04-29T04:18:35.774Z,91.20
2023-04-29T04:21:10.758Z,90.90
2023-04-29T04:23:41.013Z,90.70
2023-04-29T04:26:10.321Z,90.60
2023-04-29T04:29:00.820Z,90.40
2023-04-29T04:32:06.959Z,90.20
2023-04-29T04:54:02.903Z,89.30
2023-04-29T05:22:02.295Z,87.90
2023-04-29T05:24:30.307Z,87.70
2023-04-29T05:26:57.682Z,88.20
2023-04-29T05:32:35.873Z,86.90
2023-04-29T05:35:07.181Z,86.50
2023-04-29T05:37:35.904Z,85.80
2023-04-29T05:43:49.512Z,86.10
2023-04-29T05:49:27.474Z,85.30
2023-04-29T05:54:58.720Z,85.10
2023-04-29T05:57:32.022Z,84.40
2023-04-29T06:06:38.587Z,83.50
2023-04-29T06:58:23.648Z,74.10
2023-04-29T07:00:51.630Z,74.40
2023-04-29T07:03:19.443Z,73.50
2023-04-29T07:05:47.325Z,73.80
2023-04-29T07:08:14.953Z,72.00
2023-04-29T07:10:42.371Z,72.40
2023-04-29T07:13:09.894Z,71.30
2023-04-29T07:15:37.705Z,72.20
2023-04-29T07:18:06.866Z,72.00
2023-04-29T07:20:37.228Z,71.80
2023-04-29T07:23:05.392Z,71.50
2023-04-29T07:25:33.707Z,72.00
2023-04-29T07:28:01.545Z,70.80
2023-04-29T07:30:29.043Z,71.00
2023-04-29T07:32:56.527Z,71.10
2023-04-29T07:35:24.972Z,71.80
2023-04-29T07:37:52.696Z,71.10
2023-04-29T07:40:20.214Z,72.10
2023-04-29T07:42:48.980Z,72.40
2023-04-29T07:45:16.654Z,71.90
2023-04-29T07:47:45.982Z,72.20
2023-04-29T07:50:15.057Z,72.00
2023-04-29T07:52:43.404Z,72.20
2023-04-29T07:55:11.179Z,72.40
2023-04-29T07:57:39.787Z,72.60
2023-04-29T08:00:08.860Z,72.40
2023-04-29T08:02:43.006Z,72.70
2023-04-29T08:05:13.956Z,72.80
2023-04-29T08:07:42.411Z,73.00
2023-04-29T08:10:14.628Z,73.20
2023-04-29T08:39:05.334Z,74.50
2023-04-29T08:41:33.896Z,73.90
2023-04-29T08:44:01.642Z,75.00
2023-04-29T09:08:41.390Z,75.80
2023-04-29T09:11:15.129Z,75.50
2023-04-29T09:13:45.536Z,75.90
2023-04-29T10:12:57.231Z,78.00
2023-04-29T10:21:58.006Z,77.40
2023-04-29T10:24:31.007Z,76.10
2023-04-29T10:39:54.950Z,76.80
2023-04-29T11:09:41.626Z,74.30
2023-04-29T11:12:10.850Z,74.00
2023-04-29T11:14:43.339Z,71.80
2023-04-29T11:17:15.550Z,72.60
2023-04-29T11:19:53.617Z,71.10
2023-04-29T11:22:31.209Z,72.60
2023-04-29T11:25:10.516Z,72.00
2023-04-29T11:27:40.352Z,70.70
2023-04-29T11:30:08.581Z,71.10
2023-04-29T11:32:42.658Z,69.30
2023-04-29T11:35:18.176Z,69.10
2023-04-29T11:37:47.181Z,67.30
2023-04-29T11:40:15.581Z,70.00
2023-04-29T11:42:50.296Z,70.00
2023-04-29T11:45:19.389Z,70.80
2023-04-29T11:47:49.247Z,67.60
2023-04-29T11:50:19.988Z,67.70
2023-04-29T11:52:50.181Z,67.50
2023-04-29T11:55:19.284Z,67.40
2023-04-29T11:57:49.582Z,67.70
2023-04-29T12:00:17.282Z,67.10
2023-04-29T12:02:47.139Z,66.40
2023-04-29T12:05:16.558Z,68.70
2023-04-29T12:07:45.091Z,66.70
2023-04-29T12:10:13.295Z,66.80
2023-04-29T12:12:44.021Z,69.40
2023-04-29T12:15:12.803Z,67.10
2023-04-29T12:17:41.268Z,66.90
2023-04-29T12:20:10.369Z,66.30
2023-04-29T12:22:38.001Z,68.20
2023-04-29T12:25:07.531Z,67.60
2023-04-29T12:27:38.838Z,67.40
2023-04-29T12:30:10.213Z,68.20
2023-04-29T12:32:38.591Z,67.20
2023-04-29T12:35:07.397Z,67.80
2023-04-29T12:37:35.366Z,67.10
2023-04-29T12:40:03.564Z,67.20
2023-04-29T12:42:35.028Z,67.00
2023-04-29T12:45:02.620Z,66.60
2023-04-29T12:47:34.800Z,67.00
2023-04-29T12:50:02.746Z,67.00
2023-04-29T12:52:30.798Z,67.20
2023-04-29T12:54:58.735Z,66.70
2023-04-29T12:57:28.412Z,66.00
2023-04-29T12:59:56.794Z,66.10
2023-04-29T13:02:24.408Z,65.60
2023-04-29T13:04:56.578Z,66.20
2023-04-29T13:07:28.783Z,65.80
2023-04-29T13:09:59.210Z,67.10
2023-04-29T13:25:51.193Z,67.00
2023-04-29T13:34:34.735Z,68.80
2023-04-29T13:37:02.091Z,68.10
2023-04-29T13:39:29.856Z,68.40
2023-04-29T13:41:59.200Z,68.10
2023-04-29T13:44:37.686Z,69.10
2023-04-29T13:48:03.844Z,69.00
2023-04-29T14:01:05.212Z,70.10
2023-04-29T14:03:19.588Z,69.70
2023-04-29T14:05:47.554Z,69.80
2023-04-29T14:11:26.324Z,69.60
2023-04-29T14:13:56.214Z,71.30
2023-04-29T14:19:34.014Z,70.90
2023-04-29T14:28:17.541Z,70.40
2023-04-29T15:05:27.934Z,72.70
2023-04-29T15:24:15.007Z,72.30
2023-04-29T15:44:28.831Z,73.20
2023-04-29T20:14:04.994Z,77.90
2023-04-29T20:16:35.260Z,77.70
2023-04-29T20:19:28.988Z,78.20
2023-04-29T20:21:58.199Z,77.80
2023-04-29T20:24:29.607Z,78.00
2023-04-29T20:27:01.047Z,77.50
2023-04-29T21:24:21.947Z,77.80
2023-04-29T21:27:16.158Z,77.90
2023-04-29T21:29:44.134Z,77.20
2023-04-29T21:32:12.314Z,77.70
2023-04-29T21:37:56.746Z,77.90
2023-04-29T21:43:35.535Z,78.20
2023-04-29T21:46:07.459Z,78.50
2023-04-29T21:48:35.768Z,78.40
2023-04-29T21:51:06.075Z,77.40
2023-04-29T21:53:34.797Z,77.70
2023-04-29T21:56:02.386Z,78.30
2023-04-29T22:06:34.013Z,79.60
2023-04-29T22:09:02.860Z,80.20
2023-04-29T22:12:24.988Z,80.40
2023-04-29T22:14:52.596Z,79.90
2023-04-29T22:17:19.924Z,80.00
2023-04-29T22:19:48.050Z,79.90
2023-04-29T22:22:15.457Z,79.90
2023-04-29T22:24:43.164Z,80.40
2023-04-29T22:27:11.456Z,78.90
2023-04-29T22:29:43.287Z,79.10
2023-04-29T22:32:11.080Z,79.30
2023-04-29T22:34:40.079Z,78.90
2023-04-29T22:37:07.669Z,79.50
2023-04-29T22:42:39.452Z,79.80
2023-04-29T22:45:07.980Z,80.40
2023-04-29T22:47:35.454Z,80.20
2023-04-29T22:53:11.398Z,80.40
2023-04-29T22:55:39.501Z,80.70
2023-04-29T22:58:08.039Z,81.00
2023-04-29T23:00:35.780Z,81.90
2023-04-29T23:03:03.454Z,81.90
2023-04-29T23:06:00.040Z,82.10
2023-04-29T23:08:53.822Z,81.80
2023-04-29T23:14:34.453Z,81.00
2023-04-29T23:17:01.851Z,81.90
2023-04-29T23:19:29.201Z,81.80
2023-04-29T23:22:27.093Z,82.60
2023-04-29T23:24:54.490Z,81.30
2023-04-29T23:27:21.889Z,82.40
2023-04-29T23:30:41.023Z,82.10
2023-04-29T23:33:09.129Z,81.50
2023-04-29T23:36:27.517Z,82.20
2023-04-29T23:38:55.697Z,82.30
2023-04-29T23:41:23.597Z,81.50
2023-04-29T23:43:51.692Z,81.90
2023-04-29T23:46:19.547Z,80.80
2023-04-29T23:48:47.285Z,81.80
2023-04-29T23:51:15.723Z,80.80
2023-04-29T23:53:43.430Z,81.40
2023-04-29T23:56:11.208Z,81.10
2023-04-29T23:58:43.662Z,81.70
